sensor_id;sensor_type;location;lat;lon;timestamp;temperature;humidity
66096;SHT31;53861;53.422;14.530;2023-06-10T00:01:25;15.89;78.81
66096;SHT31;53861;53.422;14.530;2023-06-10T00:03:53;16.02;78.53
66096;SHT31;53861;53.422;14.530;2023-06-10T00:06:21;16.09;78.29
66096;SHT31;53861;53.422;14.530;2023-06-10T00:08:50;16.20;78.36
66096;SHT31;53861;53.422;14.530;2023-06-10T00:11:18;16.18;77.65
66096;SHT31;53861;53.422;14.530;2023-06-10T00:13:46;16.20;78.07
66096;SHT31;53861;53.422;14.530;2023-06-10T00:16:13;16.14;77.93
66096;SHT31;53861;53.422;14.530;2023-06-10T00:18:40;16.14;78.08
66096;SHT31;53861;53.422;14.530;2023-06-10T00:21:07;16.21;78.04
66096;SHT31;53861;53.422;14.530;2023-06-10T00:23:35;16.13;77.72
66096;SHT31;53861;53.422;14.530;2023-06-10T00:26:03;16.07;77.81
66096;SHT31;53861;53.422;14.530;2023-06-10T00:28:32;16.12;77.72
66096;SHT31;53861;53.422;14.530;2023-06-10T00:30:59;16.14;77.59
66096;SHT31;53861;53.422;14.530;2023-06-10T00:33:26;16.20;77.52
66096;SHT31;53861;53.422;14.530;2023-06-10T00:35:54;16.12;77.80
66096;SHT31;53861;53.422;14.530;2023-06-10T00:38:21;16.17;78.34
66096;SHT31;53861;53.422;14.530;2023-06-10T00:40:49;16.12;77.84
66096;SHT31;53861;53.422;14.530;2023-06-10T00:43:16;16.04;77.86
66096;SHT31;53861;53.422;14.530;2023-06-10T00:45:45;16.04;78.50
66096;SHT31;53861;53.422;14.530;2023-06-10T00:48:12;16.07;77.82
66096;SHT31;53861;53.422;14.530;2023-06-10T00:50:40;16.06;78.02
66096;SHT31;53861;53.422;14.530;2023-06-10T00:53:08;16.16;77.42
66096;SHT31;53861;53.422;14.530;2023-06-10T00:55:35;16.16;77.33
66096;SHT31;53861;53.422;14.530;2023-06-10T00:58:03;16.12;77.39
66096;SHT31;53861;53.422;14.530;2023-06-10T01:00:30;16.07;77.62
66096;SHT31;53861;53.422;14.530;2023-06-10T01:02:59;16.06;77.37
66096;SHT31;53861;53.422;14.530;2023-06-10T01:05:27;16.10;77.30
66096;SHT31;53861;53.422;14.530;2023-06-10T01:08:01;15.99;77.61
66096;SHT31;53861;53.422;14.530;2023-06-10T01:10:34;15.95;77.65
66096;SHT31;53861;53.422;14.530;2023-06-10T01:13:04;16.02;77.59
66096;SHT31;53861;53.422;14.530;2023-06-10T01:15:35;15.87;77.70
66096;SHT31;53861;53.422;14.530;2023-06-10T01:18:05;15.85;77.80
66096;SHT31;53861;53.422;14.530;2023-06-10T01:20:36;15.85;78.62
66096;SHT31;53861;53.422;14.530;2023-06-10T01:23:07;15.85;78.56
66096;SHT31;53861;53.422;14.530;2023-06-10T01:25:41;15.75;77.90
66096;SHT31;53861;53.422;14.530;2023-06-10T01:28:14;15.85;77.96
66096;SHT31;53861;53.422;14.530;2023-06-10T01:30:46;15.75;78.46
66096;SHT31;53861;53.422;14.530;2023-06-10T01:33:17;15.78;78.24
66096;SHT31;53861;53.422;14.530;2023-06-10T01:35:47;15.87;78.23
66096;SHT31;53861;53.422;14.530;2023-06-10T01:38:18;15.81;78.05
66096;SHT31;53861;53.422;14.530;2023-06-10T01:40:46;15.67;78.03
66096;SHT31;53861;53.422;14.530;2023-06-10T01:43:25;15.70;78.32
66096;SHT31;53861;53.422;14.530;2023-06-10T01:48:36;15.76;78.63
66096;SHT31;53861;53.422;14.530;2023-06-10T01:51:04;15.82;78.22
66096;SHT31;53861;53.422;14.530;2023-06-10T01:53:33;15.66;78.23
66096;SHT31;53861;53.422;14.530;2023-06-10T01:56:00;15.72;78.13
66096;SHT31;53861;53.422;14.530;2023-06-10T01:58:27;15.82;77.85
66096;SHT31;53861;53.422;14.530;2023-06-10T02:00:54;15.85;77.64
66096;SHT31;53861;53.422;14.530;2023-06-10T02:03:22;15.95;77.25
66096;SHT31;53861;53.422;14.530;2023-06-10T02:05:49;15.92;78.08
66096;SHT31;53861;53.422;14.530;2023-06-10T02:08:16;15.85;77.39
66096;SHT31;53861;53.422;14.530;2023-06-10T02:10:45;15.83;77.92
66096;SHT31;53861;53.422;14.530;2023-06-10T02:13:12;15.83;77.63
66096;SHT31;53861;53.422;14.530;2023-06-10T02:15:39;15.87;77.78
66096;SHT31;53861;53.422;14.530;2023-06-10T02:18:07;15.89;77.80
66096;SHT31;53861;53.422;14.530;2023-06-10T02:20:35;15.90;77.35
66096;SHT31;53861;53.422;14.530;2023-06-10T02:23:02;15.99;77.54
66096;SHT31;53861;53.422;14.530;2023-06-10T02:25:30;15.95;77.49
66096;SHT31;53861;53.422;14.530;2023-06-10T02:27:59;15.99;77.09
66096;SHT31;53861;53.422;14.530;2023-06-10T02:30:26;15.95;76.80
66096;SHT31;53861;53.422;14.530;2023-06-10T02:32:53;15.90;76.83
66096;SHT31;53861;53.422;14.530;2023-06-10T02:35:22;15.90;77.20
66096;SHT31;53861;53.422;14.530;2023-06-10T02:37:50;15.82;76.93
66096;SHT31;53861;53.422;14.530;2023-06-10T02:40:17;15.83;77.20
66096;SHT31;53861;53.422;14.530;2023-06-10T02:42:44;15.75;77.14
66096;SHT31;53861;53.422;14.530;2023-06-10T02:45:13;15.82;77.11
66096;SHT31;53861;53.422;14.530;2023-06-10T02:47:41;15.73;77.32
66096;SHT31;53861;53.422;14.530;2023-06-10T02:50:09;15.79;77.15
66096;SHT31;53861;53.422;14.530;2023-06-10T02:52:36;15.76;77.47
66096;SHT31;53861;53.422;14.530;2023-06-10T02:55:04;15.78;77.47
66096;SHT31;53861;53.422;14.530;2023-06-10T02:57:31;15.86;77.40
66096;SHT31;53861;53.422;14.530;2023-06-10T02:59:58;15.83;77.01
66096;SHT31;53861;53.422;14.530;2023-06-10T03:02:27;15.85;77.38
66096;SHT31;53861;53.422;14.530;2023-06-10T03:04:55;15.97;76.58
66096;SHT31;53861;53.422;14.530;2023-06-10T03:07:22;15.83;76.84
66096;SHT31;53861;53.422;14.530;2023-06-10T03:09:50;15.87;77.18
66096;SHT31;53861;53.422;14.530;2023-06-10T03:12:17;15.89;76.75
66096;SHT31;53861;53.422;14.530;2023-06-10T03:14:44;15.93;76.55
66096;SHT31;53861;53.422;14.530;2023-06-10T03:17:12;15.99;76.53
66096;SHT31;53861;53.422;14.530;2023-06-10T03:19:40;16.02;76.13
66096;SHT31;53861;53.422;14.530;2023-06-10T03:22:09;16.09;75.77
66096;SHT31;53861;53.422;14.530;2023-06-10T03:24:36;16.13;76.08
66096;SHT31;53861;53.422;14.530;2023-06-10T03:27:06;16.13;75.79
66096;SHT31;53861;53.422;14.530;2023-06-10T03:29:34;16.16;75.56
66096;SHT31;53861;53.422;14.530;2023-06-10T03:32:01;16.23;75.52
66096;SHT31;53861;53.422;14.530;2023-06-10T03:34:29;16.14;75.64
66096;SHT31;53861;53.422;14.530;2023-06-10T03:36:58;16.24;75.86
66096;SHT31;53861;53.422;14.530;2023-06-10T03:39:25;16.18;75.27
66096;SHT31;53861;53.422;14.530;2023-06-10T03:41:55;16.28;74.99
66096;SHT31;53861;53.422;14.530;2023-06-10T03:44:23;16.09;75.05
66096;SHT31;53861;53.422;14.530;2023-06-10T03:46:51;16.13;75.23
66096;SHT31;53861;53.422;14.530;2023-06-10T03:49:19;16.13;75.32
66096;SHT31;53861;53.422;14.530;2023-06-10T03:51:46;16.16;75.43
66096;SHT31;53861;53.422;14.530;2023-06-10T03:54:14;16.33;74.79
66096;SHT31;53861;53.422;14.530;2023-06-10T03:56:42;16.41;73.96
66096;SHT31;53861;53.422;14.530;2023-06-10T03:59:09;16.40;74.57
66096;SHT31;53861;53.422;14.530;2023-06-10T04:01:36;16.31;75.22
66096;SHT31;53861;53.422;14.530;2023-06-10T04:04:07;16.40;74.91
66096;SHT31;53861;53.422;14.530;2023-06-10T04:06:34;16.48;74.95
66096;SHT31;53861;53.422;14.530;2023-06-10T04:09:03;16.47;74.12
66096;SHT31;53861;53.422;14.530;2023-06-10T04:11:32;16.60;73.96
66096;SHT31;53861;53.422;14.530;2023-06-10T04:13:59;16.68;73.35
66096;SHT31;53861;53.422;14.530;2023-06-10T04:16:26;16.74;73.46
66096;SHT31;53861;53.422;14.530;2023-06-10T04:18:53;16.78;73.20
66096;SHT31;53861;53.422;14.530;2023-06-10T04:21:21;16.75;73.38
66096;SHT31;53861;53.422;14.530;2023-06-10T04:23:48;16.96;72.77
66096;SHT31;53861;53.422;14.530;2023-06-10T04:26:15;17.07;72.46
66096;SHT31;53861;53.422;14.530;2023-06-10T04:28:44;17.09;72.41
66096;SHT31;53861;53.422;14.530;2023-06-10T04:31:11;17.01;72.46
66096;SHT31;53861;53.422;14.530;2023-06-10T04:33:39;17.09;72.41
66096;SHT31;53861;53.422;14.530;2023-06-10T04:36:06;17.07;72.56
66096;SHT31;53861;53.422;14.530;2023-06-10T04:38:33;17.14;72.58
66096;SHT31;53861;53.422;14.530;2023-06-10T04:41:01;17.22;72.10
66096;SHT31;53861;53.422;14.530;2023-06-10T04:43:28;17.30;71.38
66096;SHT31;53861;53.422;14.530;2023-06-10T04:45:57;17.56;70.99
66096;SHT31;53861;53.422;14.530;2023-06-10T04:48:25;17.53;70.82
66096;SHT31;53861;53.422;14.530;2023-06-10T04:50:52;17.49;72.11
66096;SHT31;53861;53.422;14.530;2023-06-10T04:53:20;17.46;71.46
66096;SHT31;53861;53.422;14.530;2023-06-10T04:55:47;17.47;71.14
66096;SHT31;53861;53.422;14.530;2023-06-10T04:58:15;17.43;71.44
66096;SHT31;53861;53.422;14.530;2023-06-10T05:00:42;17.49;71.41
66096;SHT31;53861;53.422;14.530;2023-06-10T05:03:11;17.47;71.52
66096;SHT31;53861;53.422;14.530;2023-06-10T05:05:38;17.32;72.11
66096;SHT31;53861;53.422;14.530;2023-06-10T05:08:05;17.45;71.92
66096;SHT31;53861;53.422;14.530;2023-06-10T05:10:32;17.53;72.34
66096;SHT31;53861;53.422;14.530;2023-06-10T05:13:00;17.53;71.72
66096;SHT31;53861;53.422;14.530;2023-06-10T05:15:27;17.67;71.54
66096;SHT31;53861;53.422;14.530;2023-06-10T05:17:56;17.76;71.01
66096;SHT31;53861;53.422;14.530;2023-06-10T05:20:25;17.69;71.30
66096;SHT31;53861;53.422;14.530;2023-06-10T05:22:52;17.67;71.63
66096;SHT31;53861;53.422;14.530;2023-06-10T05:25:19;17.65;71.87
66096;SHT31;53861;53.422;14.530;2023-06-10T05:27:47;17.89;70.58
66096;SHT31;53861;53.422;14.530;2023-06-10T05:30:14;17.83;71.25
66096;SHT31;53861;53.422;14.530;2023-06-10T05:32:44;17.79;71.36
66096;SHT31;53861;53.422;14.530;2023-06-10T05:35:11;17.76;71.87
66096;SHT31;53861;53.422;14.530;2023-06-10T05:37:40;17.79;71.84
66096;SHT31;53861;53.422;14.530;2023-06-10T05:40:08;17.96;72.36
66096;SHT31;53861;53.422;14.530;2023-06-10T05:42:36;18.01;70.58
66096;SHT31;53861;53.422;14.530;2023-06-10T05:45:03;18.20;71.40
66096;SHT31;53861;53.422;14.530;2023-06-10T05:47:32;18.24;71.68
66096;SHT31;53861;53.422;14.530;2023-06-10T05:49:59;18.47;69.56
66096;SHT31;53861;53.422;14.530;2023-06-10T05:52:26;18.59;69.32
66096;SHT31;53861;53.422;14.530;2023-06-10T05:54:55;18.61;69.50
66096;SHT31;53861;53.422;14.530;2023-06-10T05:57:22;18.82;69.62
66096;SHT31;53861;53.422;14.530;2023-06-10T05:59:49;18.92;69.54
66096;SHT31;53861;53.422;14.530;2023-06-10T06:02:17;18.79;69.68
66096;SHT31;53861;53.422;14.530;2023-06-10T06:04:44;18.85;70.26
66096;SHT31;53861;53.422;14.530;2023-06-10T06:07:11;19.07;69.78
66096;SHT31;53861;53.422;14.530;2023-06-10T06:09:38;19.34;68.74
66096;SHT31;53861;53.422;14.530;2023-06-10T06:12:08;19.60;68.08
66096;SHT31;53861;53.422;14.530;2023-06-10T06:14:37;19.58;68.92
66096;SHT31;53861;53.422;14.530;2023-06-10T06:17:05;19.57;68.66
66096;SHT31;53861;53.422;14.530;2023-06-10T06:19:32;19.75;68.30
66096;SHT31;53861;53.422;14.530;2023-06-10T06:21:59;20.39;67.25
66096;SHT31;53861;53.422;14.530;2023-06-10T06:24:27;20.73;66.05
66096;SHT31;53861;53.422;14.530;2023-06-10T06:26:54;21.07;64.79
66096;SHT31;53861;53.422;14.530;2023-06-10T06:29:22;21.44;64.20
66096;SHT31;53861;53.422;14.530;2023-06-10T06:31:50;21.48;64.77
66096;SHT31;53861;53.422;14.530;2023-06-10T06:34:17;21.81;63.36
66096;SHT31;53861;53.422;14.530;2023-06-10T06:36:44;21.98;62.57
66096;SHT31;53861;53.422;14.530;2023-06-10T06:39:11;22.22;62.00
66096;SHT31;53861;53.422;14.530;2023-06-10T06:41:39;22.49;62.09
66096;SHT31;53861;53.422;14.530;2023-06-10T06:44:06;22.70;64.06
66096;SHT31;53861;53.422;14.530;2023-06-10T06:46:35;22.95;61.79
66096;SHT31;53861;53.422;14.530;2023-06-10T06:49:02;23.39;59.97
66096;SHT31;53861;53.422;14.530;2023-06-10T06:51:29;23.32;59.99
66096;SHT31;53861;53.422;14.530;2023-06-10T06:53:57;23.42;61.66
66096;SHT31;53861;53.422;14.530;2023-06-10T06:56:24;23.73;61.99
66096;SHT31;53861;53.422;14.530;2023-06-10T06:58:52;23.38;61.39
66096;SHT31;53861;53.422;14.530;2023-06-10T07:01:20;23.89;59.73
66096;SHT31;53861;53.422;14.530;2023-06-10T07:03:49;23.82;59.86
66096;SHT31;53861;53.422;14.530;2023-06-10T07:06:16;24.17;58.69
66096;SHT31;53861;53.422;14.530;2023-06-10T07:08:43;24.47;57.54
66096;SHT31;53861;53.422;14.530;2023-06-10T07:11:11;24.67;57.22
66096;SHT31;53861;53.422;14.530;2023-06-10T07:13:38;24.81;57.42
66096;SHT31;53861;53.422;14.530;2023-06-10T07:16:05;25.11;57.07
66096;SHT31;53861;53.422;14.530;2023-06-10T07:18:32;25.23;55.85
66096;SHT31;53861;53.422;14.530;2023-06-10T07:21:01;25.58;55.96
66096;SHT31;53861;53.422;14.530;2023-06-10T07:23:28;25.23;55.95
66096;SHT31;53861;53.422;14.530;2023-06-10T07:25:56;25.70;55.46
66096;SHT31;53861;53.422;14.530;2023-06-10T07:28:23;26.43;55.10
66096;SHT31;53861;53.422;14.530;2023-06-10T07:30:50;26.94;52.32
66096;SHT31;53861;53.422;14.530;2023-06-10T07:33:17;27.36;54.56
66096;SHT31;53861;53.422;14.530;2023-06-10T07:35:45;27.87;51.65
66096;SHT31;53861;53.422;14.530;2023-06-10T07:38:13;28.48;52.21
66096;SHT31;53861;53.422;14.530;2023-06-10T07:40:41;28.59;49.05
66096;SHT31;53861;53.422;14.530;2023-06-10T07:43:08;28.99;51.75
66096;SHT31;53861;53.422;14.530;2023-06-10T07:45:35;28.89;50.16
66096;SHT31;53861;53.422;14.530;2023-06-10T07:48:03;29.17;48.95
66096;SHT31;53861;53.422;14.530;2023-06-10T07:50:30;29.61;48.65
66096;SHT31;53861;53.422;14.530;2023-06-10T07:52:58;29.14;49.26
66096;SHT31;53861;53.422;14.530;2023-06-10T07:55:26;28.27;49.84
66096;SHT31;53861;53.422;14.530;2023-06-10T07:57:54;28.08;50.63
66096;SHT31;53861;53.422;14.530;2023-06-10T08:00:21;28.05;50.73
66096;SHT31;53861;53.422;14.530;2023-06-10T08:02:49;28.11;50.33
66096;SHT31;53861;53.422;14.530;2023-06-10T08:05:17;28.31;49.76
66096;SHT31;53861;53.422;14.530;2023-06-10T08:07:44;28.56;49.47
66096;SHT31;53861;53.422;14.530;2023-06-10T08:10:15;28.25;49.21
66096;SHT31;53861;53.422;14.530;2023-06-10T08:12:46;28.56;50.51
66096;SHT31;53861;53.422;14.530;2023-06-10T08:15:14;28.79;49.07
66096;SHT31;53861;53.422;14.530;2023-06-10T08:17:41;29.09;48.98
66096;SHT31;53861;53.422;14.530;2023-06-10T08:20:10;29.61;48.00
66096;SHT31;53861;53.422;14.530;2023-06-10T08:22:38;29.33;47.29
66096;SHT31;53861;53.422;14.530;2023-06-10T08:25:06;29.54;47.47
66096;SHT31;53861;53.422;14.530;2023-06-10T08:27:33;29.73;46.46
66096;SHT31;53861;53.422;14.530;2023-06-10T08:30:03;29.54;49.04
66096;SHT31;53861;53.422;14.530;2023-06-10T08:32:31;29.82;49.56
66096;SHT31;53861;53.422;14.530;2023-06-10T08:34:58;30.12;45.44
66096;SHT31;53861;53.422;14.530;2023-06-10T08:37:29;29.94;44.75
66096;SHT31;53861;53.422;14.530;2023-06-10T08:39:56;29.95;44.75
66096;SHT31;53861;53.422;14.530;2023-06-10T08:42:27;29.47;46.12
66096;SHT31;53861;53.422;14.530;2023-06-10T08:44:58;29.73;45.12
66096;SHT31;53861;53.422;14.530;2023-06-10T08:47:30;30.06;45.91
66096;SHT31;53861;53.422;14.530;2023-06-10T08:50:03;30.04;46.31
66096;SHT31;53861;53.422;14.530;2023-06-10T08:52:41;30.14;45.29
66096;SHT31;53861;53.422;14.530;2023-06-10T08:55:12;30.14;45.12
66096;SHT31;53861;53.422;14.530;2023-06-10T08:57:41;30.22;43.98
66096;SHT31;53861;53.422;14.530;2023-06-10T09:00:12;30.46;43.16
66096;SHT31;53861;53.422;14.530;2023-06-10T09:02:41;30.67;43.31
66096;SHT31;53861;53.422;14.530;2023-06-10T09:05:09;30.42;43.44
66096;SHT31;53861;53.422;14.530;2023-06-10T09:07:39;30.65;43.93
66096;SHT31;53861;53.422;14.530;2023-06-10T09:10:07;30.82;42.29
66096;SHT31;53861;53.422;14.530;2023-06-10T09:12:37;30.83;42.14
66096;SHT31;53861;53.422;14.530;2023-06-10T09:15:05;30.94;41.82
66096;SHT31;53861;53.422;14.530;2023-06-10T09:17:37;30.86;42.68
66096;SHT31;53861;53.422;14.530;2023-06-10T09:20:08;31.59;45.80
66096;SHT31;53861;53.422;14.530;2023-06-10T09:22:36;31.45;41.77
66096;SHT31;53861;53.422;14.530;2023-06-10T09:25:07;31.71;41.54
66096;SHT31;53861;53.422;14.530;2023-06-10T09:27:44;31.84;40.47
66096;SHT31;53861;53.422;14.530;2023-06-10T09:30:28;31.84;41.49
66096;SHT31;53861;53.422;14.530;2023-06-10T09:32:57;32.19;41.02
66096;SHT31;53861;53.422;14.530;2023-06-10T09:35:27;32.36;40.73
66096;SHT31;53861;53.422;14.530;2023-06-10T09:37:58;32.59;40.71
66096;SHT31;53861;53.422;14.530;2023-06-10T09:40:28;32.77;39.23
66096;SHT31;53861;53.422;14.530;2023-06-10T09:42:57;32.84;42.65
66096;SHT31;53861;53.422;14.530;2023-06-10T09:45:29;32.79;39.37
66096;SHT31;53861;53.422;14.530;2023-06-10T09:47:57;32.79;38.31
66096;SHT31;53861;53.422;14.530;2023-06-10T09:50:27;32.84;39.39
66096;SHT31;53861;53.422;14.530;2023-06-10T09:52:54;32.96;38.88
66096;SHT31;53861;53.422;14.530;2023-06-10T09:55:23;33.42;39.74
66096;SHT31;53861;53.422;14.530;2023-06-10T09:57:53;33.18;38.70
66096;SHT31;53861;53.422;14.530;2023-06-10T10:00:22;33.27;38.94
66096;SHT31;53861;53.422;14.530;2023-06-10T10:02:51;33.54;38.56
66096;SHT31;53861;53.422;14.530;2023-06-10T10:05:22;33.38;39.31
66096;SHT31;53861;53.422;14.530;2023-06-10T10:07:51;33.37;42.59
66096;SHT31;53861;53.422;14.530;2023-06-10T10:10:20;33.54;41.56
66096;SHT31;53861;53.422;14.530;2023-06-10T10:12:50;32.97;38.57
66096;SHT31;53861;53.422;14.530;2023-06-10T10:15:18;33.64;37.40
66096;SHT31;53861;53.422;14.530;2023-06-10T10:17:51;34.17;36.52
66096;SHT31;53861;53.422;14.530;2023-06-10T10:20:24;34.80;35.31
66096;SHT31;53861;53.422;14.530;2023-06-10T10:22:57;34.73;35.02
66096;SHT31;53861;53.422;14.530;2023-06-10T10:25:27;35.08;35.83
66096;SHT31;53861;53.422;14.530;2023-06-10T10:27:58;35.79;39.14
66096;SHT31;53861;53.422;14.530;2023-06-10T10:30:28;35.56;35.70
66096;SHT31;53861;53.422;14.530;2023-06-10T10:32:58;36.16;34.22
66096;SHT31;53861;53.422;14.530;2023-06-10T10:35:25;36.20;35.74
66096;SHT31;53861;53.422;14.530;2023-06-10T10:37:56;36.36;32.30
66096;SHT31;53861;53.422;14.530;2023-06-10T10:40:25;36.32;34.94
66096;SHT31;53861;53.422;14.530;2023-06-10T10:42:58;35.28;33.51
66096;SHT31;53861;53.422;14.530;2023-06-10T10:45:27;35.97;32.37
66096;SHT31;53861;53.422;14.530;2023-06-10T10:47:58;36.39;33.95
66096;SHT31;53861;53.422;14.530;2023-06-10T10:50:31;35.96;32.50
66096;SHT31;53861;53.422;14.530;2023-06-10T10:53:03;36.47;32.33
66096;SHT31;53861;53.422;14.530;2023-06-10T10:55:31;36.56;32.66
66096;SHT31;53861;53.422;14.530;2023-06-10T10:58:02;36.32;31.58
66096;SHT31;53861;53.422;14.530;2023-06-10T11:00:30;35.39;32.48
66096;SHT31;53861;53.422;14.530;2023-06-10T11:02:59;35.76;31.90
66096;SHT31;53861;53.422;14.530;2023-06-10T11:05:37;36.60;32.89
66096;SHT31;53861;53.422;14.530;2023-06-10T11:08:07;36.71;33.32
66096;SHT31;53861;53.422;14.530;2023-06-10T11:10:36;36.97;32.36
66096;SHT31;53861;53.422;14.530;2023-06-10T11:13:08;36.71;31.62
66096;SHT31;53861;53.422;14.530;2023-06-10T11:15:39;36.97;31.42
66096;SHT31;53861;53.422;14.530;2023-06-10T11:20:59;36.91;29.80
66096;SHT31;53861;53.422;14.530;2023-06-10T11:23:41;36.32;30.99
66096;SHT31;53861;53.422;14.530;2023-06-10T11:29:08;32.96;34.98
66096;SHT31;53861;53.422;14.530;2023-06-10T11:31:46;32.12;35.05
66096;SHT31;53861;53.422;14.530;2023-06-10T11:34:21;31.62;35.84
66096;SHT31;53861;53.422;14.530;2023-06-10T11:36:51;31.18;36.09
66096;SHT31;53861;53.422;14.530;2023-06-10T11:39:20;31.44;38.05
66096;SHT31;53861;53.422;14.530;2023-06-10T11:41:50;31.23;39.18
66096;SHT31;53861;53.422;14.530;2023-06-10T11:44:21;31.42;36.77
66096;SHT31;53861;53.422;14.530;2023-06-10T11:46:49;30.91;37.44
66096;SHT31;53861;53.422;14.530;2023-06-10T11:49:17;30.67;37.04
66096;SHT31;53861;53.422;14.530;2023-06-10T11:51:44;30.37;38.74
66096;SHT31;53861;53.422;14.530;2023-06-10T11:54:15;30.39;37.62
66096;SHT31;53861;53.422;14.530;2023-06-10T11:56:46;30.18;37.35
66096;SHT31;53861;53.422;14.530;2023-06-10T11:59:13;29.84;38.47
66096;SHT31;53861;53.422;14.530;2023-06-10T12:01:43;29.80;38.25
66096;SHT31;53861;53.422;14.530;2023-06-10T12:04:12;29.92;38.29
66096;SHT31;53861;53.422;14.530;2023-06-10T12:06:43;30.04;39.07
66096;SHT31;53861;53.422;14.530;2023-06-10T12:09:20;30.01;39.75
66096;SHT31;53861;53.422;14.530;2023-06-10T12:11:51;30.16;38.94
66096;SHT31;53861;53.422;14.530;2023-06-10T12:14:53;31.21;38.40
66096;SHT31;53861;53.422;14.530;2023-06-10T12:17:35;32.12;35.87
66096;SHT31;53861;53.422;14.530;2023-06-10T12:20:05;32.71;35.62
66096;SHT31;53861;53.422;14.530;2023-06-10T12:22:37;33.50;37.39
66096;SHT31;53861;53.422;14.530;2023-06-10T12:25:06;32.84;38.50
66096;SHT31;53861;53.422;14.530;2023-06-10T12:27:36;32.79;36.32
66096;SHT31;53861;53.422;14.530;2023-06-10T12:30:04;33.35;35.49
66096;SHT31;53861;53.422;14.530;2023-06-10T12:32:37;34.10;35.28
66096;SHT31;53861;53.422;14.530;2023-06-10T12:35:06;34.05;33.55
66096;SHT31;53861;53.422;14.530;2023-06-10T12:37:40;33.54;33.96
66096;SHT31;53861;53.422;14.530;2023-06-10T12:40:11;32.59;35.48
66096;SHT31;53861;53.422;14.530;2023-06-10T12:42:43;32.33;36.16
66096;SHT31;53861;53.422;14.530;2023-06-10T12:45:11;32.96;37.24
66096;SHT31;53861;53.422;14.530;2023-06-10T12:47:39;33.62;36.14
66096;SHT31;53861;53.422;14.530;2023-06-10T12:50:10;33.62;35.28
66096;SHT31;53861;53.422;14.530;2023-06-10T12:52:38;32.60;36.69
66096;SHT31;53861;53.422;14.530;2023-06-10T12:55:07;33.01;37.37
66096;SHT31;53861;53.422;14.530;2023-06-10T12:57:35;32.43;37.49
66096;SHT31;53861;53.422;14.530;2023-06-10T13:00:05;32.69;36.74
66096;SHT31;53861;53.422;14.530;2023-06-10T13:02:35;33.47;36.48
66096;SHT31;53861;53.422;14.530;2023-06-10T13:05:03;33.54;33.56
66096;SHT31;53861;53.422;14.530;2023-06-10T13:07:30;32.90;34.72
66096;SHT31;53861;53.422;14.530;2023-06-10T13:09:58;32.37;37.53
66096;SHT31;53861;53.422;14.530;2023-06-10T13:12:27;30.91;37.31
66096;SHT31;53861;53.422;14.530;2023-06-10T13:14:55;30.90;38.93
66096;SHT31;53861;53.422;14.530;2023-06-10T13:17:24;30.55;40.54
66096;SHT31;53861;53.422;14.530;2023-06-10T13:19:51;30.09;39.54
66096;SHT31;53861;53.422;14.530;2023-06-10T13:22:19;30.51;39.97
66096;SHT31;53861;53.422;14.530;2023-06-10T13:24:48;30.80;38.35
66096;SHT31;53861;53.422;14.530;2023-06-10T13:27:16;30.39;39.10
66096;SHT31;53861;53.422;14.530;2023-06-10T13:29:43;30.31;40.03
66096;SHT31;53861;53.422;14.530;2023-06-10T13:32:11;30.52;38.57
66096;SHT31;53861;53.422;14.530;2023-06-10T13:34:42;30.72;40.25
66096;SHT31;53861;53.422;14.530;2023-06-10T13:37:09;31.00;41.24
66096;SHT31;53861;53.422;14.530;2023-06-10T13:39:38;31.88;41.25
66096;SHT31;53861;53.422;14.530;2023-06-10T13:42:06;31.92;40.89
66096;SHT31;53861;53.422;14.530;2023-06-10T13:44:33;32.16;42.66
66096;SHT31;53861;53.422;14.530;2023-06-10T13:47:02;32.32;37.84
66096;SHT31;53861;53.422;14.530;2023-06-10T13:49:30;32.44;38.07
66096;SHT31;53861;53.422;14.530;2023-06-10T13:51:59;32.46;36.57
66096;SHT31;53861;53.422;14.530;2023-06-10T13:54:26;31.91;38.93
66096;SHT31;53861;53.422;14.530;2023-06-10T13:56:54;32.26;38.37
66096;SHT31;53861;53.422;14.530;2023-06-10T13:59:21;31.85;41.01
66096;SHT31;53861;53.422;14.530;2023-06-10T14:01:48;30.84;40.51
66096;SHT31;53861;53.422;14.530;2023-06-10T14:04:16;31.33;41.85
66096;SHT31;53861;53.422;14.530;2023-06-10T14:06:43;31.30;40.40
66096;SHT31;53861;53.422;14.530;2023-06-10T14:09:14;31.08;42.30
66096;SHT31;53861;53.422;14.530;2023-06-10T14:11:41;30.28;41.84
66096;SHT31;53861;53.422;14.530;2023-06-10T14:14:08;29.73;41.70
66096;SHT31;53861;53.422;14.530;2023-06-10T14:16:36;29.84;42.36
66096;SHT31;53861;53.422;14.530;2023-06-10T14:19:03;30.62;42.12
66096;SHT31;53861;53.422;14.530;2023-06-10T14:21:30;31.31;38.18
66096;SHT31;53861;53.422;14.530;2023-06-10T14:23:57;31.75;36.36
66096;SHT31;53861;53.422;14.530;2023-06-10T14:26:26;31.59;38.14
66096;SHT31;53861;53.422;14.530;2023-06-10T14:28:54;31.65;35.86
66096;SHT31;53861;53.422;14.530;2023-06-10T14:31:21;32.02;34.47
66096;SHT31;53861;53.422;14.530;2023-06-10T14:33:48;32.35;32.56
66096;SHT31;53861;53.422;14.530;2023-06-10T14:36:16;32.30;32.54
66096;SHT31;53861;53.422;14.530;2023-06-10T14:38:43;31.88;33.25
66096;SHT31;53861;53.422;14.530;2023-06-10T14:41:12;31.85;33.72
66096;SHT31;53861;53.422;14.530;2023-06-10T14:43:41;31.86;33.49
66096;SHT31;53861;53.422;14.530;2023-06-10T14:46:08;32.02;32.40
66096;SHT31;53861;53.422;14.530;2023-06-10T14:48:35;32.09;31.82
66096;SHT31;53861;53.422;14.530;2023-06-10T14:51:03;32.37;32.86
66096;SHT31;53861;53.422;14.530;2023-06-10T14:53:30;32.18;32.71
66096;SHT31;53861;53.422;14.530;2023-06-10T14:55:57;31.74;33.65
66096;SHT31;53861;53.422;14.530;2023-06-10T14:58:24;31.37;35.18
66096;SHT31;53861;53.422;14.530;2023-06-10T15:00:53;30.86;36.58
66096;SHT31;53861;53.422;14.530;2023-06-10T15:03:20;30.63;37.53
66096;SHT31;53861;53.422;14.530;2023-06-10T15:05:47;30.47;36.53
66096;SHT31;53861;53.422;14.530;2023-06-10T15:08:15;30.21;37.59
66096;SHT31;53861;53.422;14.530;2023-06-10T15:10:42;30.35;37.49
66096;SHT31;53861;53.422;14.530;2023-06-10T15:13:09;30.42;38.63
66096;SHT31;53861;53.422;14.530;2023-06-10T15:15:36;30.82;38.41
66096;SHT31;53861;53.422;14.530;2023-06-10T15:18:05;30.97;38.58
66096;SHT31;53861;53.422;14.530;2023-06-10T15:20:32;31.14;39.24
66096;SHT31;53861;53.422;14.530;2023-06-10T15:22:59;30.76;39.29
66096;SHT31;53861;53.422;14.530;2023-06-10T15:25:27;30.53;38.96
66096;SHT31;53861;53.422;14.530;2023-06-10T15:27:54;30.49;39.39
66096;SHT31;53861;53.422;14.530;2023-06-10T15:30:22;30.82;38.71
66096;SHT31;53861;53.422;14.530;2023-06-10T15:32:49;30.90;38.68